Weather at Danielson Airport

Public forecast

Using degrees Fahrenheit for public forecast. Weather courtesy of forecast.io.

Closest aviation weather report (METAR) to Danielson Airport

Closest report is Windham Airport, 13.3 nm (24.6 km) WSW. Retrieved 2020/10/01 10:52 UTC (24 minutes ago):

KIJD 011052Z AUTO 00000KT 10SM FEW001 08/07 A2988 RMK AO2 SLP119 T00830072

Closest aviation forecast (TAF) to Danielson Airport

Closest forecast is Theodore Francis Green State Airport, 22.1 nm (41.0 km) ESE. Retrieved 2020/10/01 06:42 UTC (5 hours ago):

TAF KPVD 010539Z 0106/0206 23004KT P6SM SKC FM011200 20006KT P6SM FEW150 FM011800 21012G19KT P6SM FEW100 FM020000 20006KT P6SM FEW150 FM020300 22004KT P6SM SKC FM020500 00000KT P6SM FEW100